createdAt,value
2018-08-03T00:00:40.215Z,14.35
2018-08-03T00:03:08.320Z,18.10
2018-08-03T00:05:36.418Z,19.27
2018-08-03T00:08:04.475Z,17.67
2018-08-03T00:10:32.541Z,16.42
2018-08-03T00:13:00.614Z,15.23
2018-08-03T00:15:28.703Z,12.07
2018-08-03T00:17:56.764Z,14.63
2018-08-03T00:20:24.839Z,10.18
2018-08-03T00:22:52.896Z,12.23
2018-08-03T00:25:20.965Z,13.43
2018-08-03T00:27:49.039Z,19.32
2018-08-03T00:30:17.107Z,20.08
2018-08-03T00:32:45.176Z,19.52
2018-08-03T00:35:13.287Z,27.17
2018-08-03T00:37:41.347Z,16.65
2018-08-03T00:40:09.444Z,19.87
2018-08-03T00:42:37.509Z,20.23
2018-08-03T00:45:05.877Z,14.40
2018-08-03T00:47:34.031Z,18.45
2018-08-03T00:50:02.116Z,14.55
2018-08-03T00:52:30.179Z,15.95
2018-08-03T00:54:58.343Z,12.88
2018-08-03T00:57:26.446Z,17.17
2018-08-03T00:59:54.535Z,19.42
2018-08-03T01:02:22.619Z,15.95
2018-08-03T01:04:50.708Z,14.90
2018-08-03T01:07:18.780Z,18.98
2018-08-03T01:09:46.892Z,19.17
2018-08-03T01:12:14.972Z,22.20
2018-08-03T01:14:43.083Z,15.35
2018-08-03T01:17:11.180Z,15.65
2018-08-03T01:19:39.268Z,12.73
2018-08-03T01:22:07.343Z,13.88
2018-08-03T01:24:35.448Z,18.73
2018-08-03T01:27:03.516Z,15.60
2018-08-03T01:29:31.641Z,19.95
2018-08-03T01:31:59.724Z,17.12
2018-08-03T01:34:27.815Z,15.60
2018-08-03T01:36:55.913Z,13.10
2018-08-03T01:39:24.016Z,14.93
2018-08-03T01:41:52.121Z,16.23
2018-08-03T01:44:20.225Z,14.80
2018-08-03T01:46:48.312Z,17.20
2018-08-03T01:49:16.384Z,15.15
2018-08-03T01:51:44.480Z,14.55
2018-08-03T01:54:12.571Z,16.07
2018-08-03T01:56:40.691Z,14.90
2018-08-03T01:59:08.817Z,13.30
2018-08-03T02:01:36.868Z,13.28
2018-08-03T02:04:04.944Z,12.60
2018-08-03T02:06:33.041Z,10.63
2018-08-03T02:09:01.115Z,11.18
2018-08-03T02:11:29.216Z,11.28
2018-08-03T02:13:57.312Z,13.60
2018-08-03T02:16:25.431Z,11.28
2018-08-03T02:18:53.500Z,10.32
2018-08-03T02:21:21.589Z,11.18
2018-08-03T02:23:49.664Z,10.03
2018-08-03T02:26:17.771Z,12.68
2018-08-03T02:28:45.835Z,9.80
2018-08-03T02:31:13.904Z,9.83
2018-08-03T02:33:42.004Z,8.60
2018-08-03T02:36:10.105Z,12.53
2018-08-03T02:38:38.164Z,13.62
2018-08-03T02:41:06.348Z,11.97
2018-08-03T02:43:34.433Z,13.43
2018-08-03T02:46:03.596Z,10.38
2018-08-03T02:48:31.648Z,13.10
2018-08-03T02:50:59.720Z,11.60
2018-08-03T02:53:27.793Z,9.65
2018-08-03T02:55:55.871Z,10.20
2018-08-03T02:58:23.937Z,9.10
2018-08-03T03:00:52.012Z,12.58
2018-08-03T03:03:20.075Z,12.47
2018-08-03T03:05:48.126Z,9.78
2018-08-03T03:08:16.196Z,13.13
2018-08-03T03:10:44.276Z,11.83
2018-08-03T03:13:12.366Z,11.55
2018-08-03T03:15:40.462Z,13.68
2018-08-03T03:18:08.560Z,9.30
2018-08-03T03:20:36.622Z,8.95
2018-08-03T03:23:04.696Z,13.00
2018-08-03T03:25:32.787Z,11.40
2018-08-03T03:28:01.024Z,14.13
2018-08-03T03:30:29.090Z,10.88
2018-08-03T03:32:57.164Z,11.00
2018-08-03T03:35:25.259Z,12.10
2018-08-03T03:37:53.356Z,12.10
2018-08-03T03:40:21.415Z,12.50
2018-08-03T03:42:49.496Z,14.80
2018-08-03T03:45:17.548Z,15.13
2018-08-03T03:47:45.628Z,15.28
2018-08-03T03:50:13.677Z,14.58
2018-08-03T03:52:41.735Z,22.32
2018-08-03T03:55:09.811Z,17.73
2018-08-03T03:57:37.863Z,14.07
2018-08-03T04:00:06.941Z,14.28
2018-08-03T04:02:35.018Z,14.05
2018-08-03T04:05:03.060Z,15.32
2018-08-03T04:07:31.123Z,15.08
2018-08-03T04:09:59.176Z,12.40
2018-08-03T04:12:27.339Z,17.15
2018-08-03T04:14:55.351Z,15.13
2018-08-03T04:17:23.439Z,14.20
2018-08-03T04:19:51.496Z,12.98
2018-08-03T04:22:19.552Z,14.85
2018-08-03T04:24:47.604Z,10.00
2018-08-03T04:27:15.680Z,15.90
2018-08-03T04:29:43.748Z,19.27
2018-08-03T04:32:11.809Z,14.70
2018-08-03T04:34:39.900Z,12.18
2018-08-03T04:37:07.972Z,13.62
2018-08-03T04:39:36.053Z,13.55
2018-08-03T04:42:04.147Z,16.73
2018-08-03T04:44:32.210Z,17.05
2018-08-03T04:47:00.288Z,19.05
2018-08-03T04:49:28.336Z,12.05
2018-08-03T04:51:56.423Z,21.90
2018-08-03T04:54:24.478Z,13.13
2018-08-03T04:56:52.531Z,20.88
2018-08-03T04:59:20.588Z,16.93
2018-08-03T05:01:48.652Z,16.90
2018-08-03T05:04:16.739Z,14.70
2018-08-03T05:06:44.817Z,14.87
2018-08-03T05:09:12.880Z,13.32
2018-08-03T05:11:40.973Z,18.07
2018-08-03T05:14:09.019Z,15.83
2018-08-03T05:16:37.101Z,15.80
2018-08-03T05:19:05.199Z,18.35
2018-08-03T05:21:33.253Z,18.50
2018-08-03T05:24:01.328Z,18.80
2018-08-03T05:26:29.544Z,15.85
2018-08-03T05:28:57.612Z,21.20
2018-08-03T05:31:25.696Z,22.17
2018-08-03T05:33:53.776Z,18.80
2018-08-03T05:36:21.928Z,20.08
2018-08-03T05:38:49.924Z,14.13
2018-08-03T05:41:18.056Z,15.03
2018-08-03T05:43:46.141Z,15.78
2018-08-03T05:46:14.192Z,27.30
2018-08-03T05:48:42.276Z,21.00
2018-08-03T05:51:10.364Z,23.70
2018-08-03T05:53:38.476Z,22.80
2018-08-03T05:56:06.606Z,19.65
2018-08-03T05:58:34.696Z,24.07
2018-08-03T06:01:02.821Z,21.80
2018-08-03T06:03:30.872Z,17.42
2018-08-03T06:05:59.335Z,25.17
2018-08-03T06:08:27.819Z,26.95
2018-08-03T06:10:55.875Z,24.77
2018-08-03T06:13:23.937Z,32.25
2018-08-03T06:15:52.023Z,25.80
2018-08-03T06:18:20.088Z,21.12
2018-08-03T06:20:48.168Z,20.60
2018-08-03T06:23:16.238Z,24.40
2018-08-03T06:25:44.276Z,29.30
2018-08-03T06:28:12.400Z,28.25
2018-08-03T06:30:40.465Z,32.48
2018-08-03T06:33:08.529Z,30.40
2018-08-03T06:35:36.602Z,28.62
2018-08-03T06:38:04.714Z,44.93
2018-08-03T06:40:32.736Z,28.87
2018-08-03T06:43:00.823Z,30.32
2018-08-03T06:45:28.927Z,32.00
2018-08-03T06:47:57.218Z,34.35
2018-08-03T06:50:25.400Z,35.10
2018-08-03T06:52:53.460Z,35.50
2018-08-03T06:55:21.585Z,31.75
2018-08-03T06:57:49.628Z,40.85
2018-08-03T07:00:17.823Z,25.37
2018-08-03T07:02:47.241Z,36.68
2018-08-03T07:05:15.243Z,37.42
2018-08-03T07:07:43.337Z,42.85
2018-08-03T07:10:11.402Z,30.43
2018-08-03T07:12:39.588Z,36.05
2018-08-03T07:15:07.640Z,47.15
2018-08-03T07:17:35.724Z,35.05
2018-08-03T07:20:04.329Z,50.25
2018-08-03T07:22:32.250Z,45.10
2018-08-03T07:25:00.308Z,49.35
2018-08-03T07:27:28.343Z,54.42
2018-08-03T07:29:56.428Z,52.25
2018-08-03T07:32:24.789Z,53.75
2018-08-03T07:34:52.835Z,49.10
2018-08-03T07:37:20.908Z,44.83
2018-08-03T07:39:48.956Z,45.43
2018-08-03T07:42:17.242Z,66.10
2018-08-03T07:44:45.275Z,57.80
2018-08-03T07:47:13.312Z,60.45
2018-08-03T07:49:41.360Z,78.42
2018-08-03T07:52:09.421Z,77.17
2018-08-03T07:54:37.532Z,82.50
2018-08-03T07:57:05.623Z,69.95
2018-08-03T07:59:33.684Z,76.30
2018-08-03T08:02:01.743Z,64.58
2018-08-03T08:04:29.830Z,72.40
2018-08-03T08:06:57.876Z,80.80
2018-08-03T08:09:25.958Z,68.37
2018-08-03T08:11:54.021Z,88.90
2018-08-03T08:14:22.095Z,82.02
2018-08-03T08:16:50.292Z,92.00
2018-08-03T08:19:18.341Z,100.90
2018-08-03T08:21:46.461Z,90.95
2018-08-03T08:24:14.572Z,94.92
2018-08-03T08:26:42.655Z,116.50
2018-08-03T08:29:10.724Z,105.23
2018-08-03T08:31:38.886Z,99.53
2018-08-03T08:34:06.918Z,78.47
2018-08-03T08:36:34.983Z,126.03
2018-08-03T08:39:03.307Z,109.07
2018-08-03T08:41:31.376Z,118.20
2018-08-03T08:43:59.604Z,102.63
2018-08-03T08:46:27.629Z,137.63
2018-08-03T08:48:55.692Z,100.83
2018-08-03T08:51:23.760Z,114.77
2018-08-03T08:53:51.843Z,79.87
2018-08-03T08:56:19.908Z,81.47
2018-08-03T08:58:47.960Z,79.17
2018-08-03T09:01:16.184Z,97.30
2018-08-03T09:03:44.192Z,98.43
2018-08-03T09:06:12.258Z,133.37
2018-08-03T09:08:40.347Z,127.97
2018-08-03T09:11:08.925Z,153.43
2018-08-03T09:13:37.019Z,114.97
2018-08-03T09:16:05.088Z,123.37
2018-08-03T09:18:33.182Z,140.90
2018-08-03T09:21:01.235Z,160.47
2018-08-03T09:23:29.298Z,123.03
2018-08-03T09:25:57.364Z,182.60
2018-08-03T09:28:25.442Z,145.73
2018-08-03T09:30:53.562Z,176.53
2018-08-03T09:33:21.619Z,179.43
2018-08-03T09:35:49.676Z,158.10
2018-08-03T09:38:17.736Z,203.17
2018-08-03T09:40:45.836Z,186.43
2018-08-03T09:43:13.903Z,176.50
2018-08-03T09:45:41.991Z,180.27
2018-08-03T09:48:10.038Z,195.67
2018-08-03T09:50:38.141Z,213.80
2018-08-03T09:53:06.360Z,174.67
2018-08-03T09:55:34.471Z,212.30
2018-08-03T09:58:02.637Z,218.70
2018-08-03T10:00:36.116Z,232.63
2018-08-03T10:03:04.174Z,215.90
2018-08-03T10:05:32.232Z,267.53
2018-08-03T10:08:00.337Z,193.47
2018-08-03T10:10:28.447Z,214.97
2018-08-03T10:12:56.589Z,181.47
2018-08-03T10:15:24.635Z,203.33
2018-08-03T10:17:52.928Z,170.13
2018-08-03T10:20:21.016Z,282.80
2018-08-03T10:22:49.089Z,191.33
2018-08-03T10:25:17.203Z,215.90
2018-08-03T10:27:45.260Z,221.40
2018-08-03T10:30:13.374Z,256.93
2018-08-03T10:32:41.444Z,228.23
2018-08-03T10:35:09.582Z,262.60
2018-08-03T10:37:37.623Z,294.57
2018-08-03T10:40:05.741Z,197.60
2018-08-03T10:42:33.833Z,217.03
2018-08-03T10:45:01.881Z,256.20
2018-08-03T10:47:29.943Z,204.93
2018-08-03T10:49:58.064Z,201.80
2018-08-03T10:52:26.121Z,211.77
2018-08-03T10:54:54.210Z,236.57
2018-08-03T10:57:22.268Z,175.90
2018-08-03T10:59:50.332Z,227.33
2018-08-03T11:02:18.386Z,225.67
2018-08-03T11:04:46.457Z,244.00
2018-08-03T11:07:14.530Z,223.23
2018-08-03T11:09:42.598Z,243.77
2018-08-03T11:12:10.684Z,254.87
2018-08-03T11:14:38.773Z,282.80
2018-08-03T11:17:06.865Z,248.60
2018-08-03T11:19:34.924Z,268.80
2018-08-03T11:22:03.060Z,193.77
2018-08-03T11:24:31.095Z,228.53
2018-08-03T11:26:59.212Z,209.23
2018-08-03T11:29:27.287Z,249.37
2018-08-03T11:31:55.357Z,188.83
2018-08-03T11:34:23.405Z,221.43
2018-08-03T11:36:51.469Z,196.57
2018-08-03T11:39:19.544Z,276.30
2018-08-03T11:41:47.630Z,231.50
2018-08-03T11:44:15.739Z,221.93
2018-08-03T11:46:43.968Z,285.03
2018-08-03T11:49:12.036Z,280.67
2018-08-03T11:51:40.099Z,255.57
2018-08-03T11:54:08.179Z,217.63
2018-08-03T11:56:36.215Z,249.60
2018-08-03T11:59:04.316Z,255.87
2018-08-03T12:01:32.396Z,258.83
2018-08-03T12:04:00.491Z,261.73
2018-08-03T12:06:28.562Z,267.93
2018-08-03T12:08:56.619Z,267.77
2018-08-03T12:11:24.688Z,277.50
2018-08-03T12:13:52.759Z,270.30
2018-08-03T12:16:20.855Z,227.47
2018-08-03T12:18:48.901Z,273.80
2018-08-03T12:21:16.979Z,291.47
2018-08-03T12:23:45.074Z,191.23
2018-08-03T12:26:13.095Z,338.17
2018-08-03T12:28:41.159Z,225.20
2018-08-03T12:31:09.269Z,293.40
2018-08-03T12:33:37.309Z,274.67
2018-08-03T12:36:05.496Z,244.43
2018-08-03T12:38:33.548Z,299.83
2018-08-03T12:41:01.689Z,256.53
2018-08-03T12:43:29.788Z,239.90
2018-08-03T12:45:57.870Z,207.97
2018-08-03T12:48:25.893Z,231.60
2018-08-03T12:50:53.972Z,207.10
2018-08-03T12:53:22.064Z,200.33
2018-08-03T12:55:50.135Z,254.77
2018-08-03T12:58:18.194Z,226.53
2018-08-03T13:00:46.249Z,249.80
2018-08-03T13:03:15.038Z,241.40
2018-08-03T13:05:43.228Z,203.53
2018-08-03T13:08:11.389Z,251.47
2018-08-03T13:10:39.973Z,253.93
2018-08-03T13:13:08.094Z,258.70
2018-08-03T13:15:36.174Z,222.70
2018-08-03T13:18:04.261Z,272.57
2018-08-03T13:20:32.340Z,260.07
2018-08-03T13:23:02.091Z,265.63
2018-08-03T13:25:30.147Z,313.60
2018-08-03T13:27:58.212Z,215.73
2018-08-03T13:30:26.256Z,273.43
2018-08-03T13:32:54.320Z,249.43
2018-08-03T13:35:22.455Z,284.20
2018-08-03T13:37:50.809Z,244.10
2018-08-03T13:40:18.880Z,215.10
2018-08-03T13:42:47.156Z,206.97
2018-08-03T13:45:15.324Z,319.83
2018-08-03T13:47:43.400Z,282.83
2018-08-03T13:50:11.981Z,299.90
2018-08-03T13:52:40.061Z,228.07
2018-08-03T13:55:08.171Z,266.20
2018-08-03T13:57:36.309Z,228.43
2018-08-03T14:00:06.169Z,231.00
2018-08-03T14:02:34.236Z,291.50
2018-08-03T14:05:02.296Z,236.07
2018-08-03T14:07:30.376Z,278.33
2018-08-03T14:09:58.483Z,255.83
2018-08-03T14:12:26.533Z,262.07
2018-08-03T14:14:54.595Z,295.77
2018-08-03T14:17:22.655Z,238.30
2018-08-03T14:19:50.703Z,274.23
2018-08-03T14:22:18.777Z,267.97
2018-08-03T14:24:46.865Z,295.47
2018-08-03T14:27:14.952Z,262.47
2018-08-03T14:29:43.005Z,278.07
2018-08-03T14:32:11.063Z,254.63
2018-08-03T14:34:39.123Z,200.33
2018-08-03T14:37:07.201Z,317.53
2018-08-03T14:39:35.252Z,211.80
2018-08-03T14:44:37.740Z,237.20
2018-08-03T14:47:05.895Z,229.93
2018-08-03T14:49:33.947Z,171.73
2018-08-03T14:52:02.001Z,217.03
2018-08-03T14:54:30.083Z,253.33
2018-08-03T14:56:58.117Z,233.23
2018-08-03T14:59:26.220Z,223.53
2018-08-03T15:01:54.269Z,293.83
2018-08-03T15:04:22.392Z,220.33
2018-08-03T15:06:50.431Z,300.27
2018-08-03T15:09:18.494Z,279.17
2018-08-03T15:11:46.545Z,272.53
2018-08-03T15:14:14.593Z,218.67
2018-08-03T15:16:42.646Z,253.27
2018-08-03T15:19:10.733Z,294.70
2018-08-03T15:21:38.819Z,224.67
2018-08-03T15:24:06.916Z,289.17
2018-08-03T15:26:34.998Z,254.77
2018-08-03T15:29:03.161Z,186.77
2018-08-03T15:31:31.170Z,177.03
2018-08-03T15:33:59.241Z,200.40
2018-08-03T15:36:27.288Z,220.03
2018-08-03T15:38:55.360Z,188.20
2018-08-03T15:41:23.428Z,202.50
2018-08-03T15:43:51.799Z,147.20
2018-08-03T15:46:21.054Z,177.17
2018-08-03T15:48:49.147Z,153.67
2018-08-03T15:51:17.204Z,141.03
2018-08-03T15:53:45.271Z,155.07
2018-08-03T15:56:13.323Z,173.33
2018-08-03T15:58:41.482Z,179.93
2018-08-03T16:01:09.520Z,185.47
2018-08-03T16:03:37.615Z,221.33
2018-08-03T16:06:05.737Z,148.53
2018-08-03T16:08:33.792Z,210.07
2018-08-03T16:11:01.961Z,164.83
2018-08-03T16:13:30.117Z,142.53
2018-08-03T16:15:59.267Z,107.47
2018-08-03T16:18:27.338Z,130.20
2018-08-03T16:20:55.380Z,133.07
2018-08-03T16:23:23.427Z,151.63
2018-08-03T16:25:51.581Z,170.50
2018-08-03T16:28:19.644Z,146.93
2018-08-03T16:30:47.708Z,186.50
2018-08-03T16:33:15.760Z,159.87
2018-08-03T16:35:43.836Z,137.10
2018-08-03T16:38:11.950Z,118.07
2018-08-03T16:40:40.097Z,96.90
2018-08-03T16:43:08.168Z,136.83
2018-08-03T16:45:36.284Z,120.00
2018-08-03T16:48:04.413Z,140.50
2018-08-03T16:50:32.496Z,124.00
2018-08-03T16:53:00.596Z,116.30
2018-08-03T16:55:28.704Z,134.87
2018-08-03T16:57:56.790Z,120.23
2018-08-03T17:00:24.996Z,104.70
2018-08-03T17:02:53.077Z,127.33
2018-08-03T17:05:21.168Z,121.27
2018-08-03T17:07:49.219Z,105.47
2018-08-03T17:10:17.285Z,107.97
2018-08-03T17:12:45.390Z,73.47
2018-08-03T17:15:13.460Z,70.03
2018-08-03T17:17:41.527Z,90.83
2018-08-03T17:20:09.664Z,88.47
2018-08-03T17:22:37.695Z,93.53
2018-08-03T17:25:05.772Z,92.20
2018-08-03T17:27:33.824Z,91.03
2018-08-03T17:30:01.889Z,78.33
2018-08-03T17:32:29.943Z,103.00
2018-08-03T17:34:57.992Z,98.67
2018-08-03T17:37:26.096Z,90.27
2018-08-03T17:39:54.276Z,78.53
2018-08-03T17:42:22.347Z,78.83
2018-08-03T17:44:50.396Z,86.20
2018-08-03T17:47:18.467Z,79.60
2018-08-03T17:49:46.556Z,75.53
2018-08-03T17:52:14.616Z,75.13
2018-08-03T17:54:42.697Z,93.27
2018-08-03T17:57:10.795Z,81.00
2018-08-03T17:59:38.832Z,76.70
2018-08-03T18:02:07.090Z,80.50
2018-08-03T18:04:35.263Z,97.73
2018-08-03T18:07:03.356Z,89.30
2018-08-03T18:09:31.603Z,81.13
2018-08-03T18:11:59.699Z,87.57
2018-08-03T18:14:27.762Z,58.97
2018-08-03T18:16:55.829Z,66.13
2018-08-03T18:19:23.891Z,71.33
2018-08-03T18:21:52.033Z,69.60
2018-08-03T18:24:20.058Z,76.67
2018-08-03T18:26:48.155Z,54.50
2018-08-03T18:29:16.281Z,51.20
2018-08-03T18:31:44.353Z,84.65
2018-08-03T18:34:12.412Z,57.62
2018-08-03T18:36:40.557Z,40.45
2018-08-03T18:39:10.000Z,40.33
2018-08-03T18:41:38.281Z,38.15
2018-08-03T18:44:06.432Z,65.27
2018-08-03T18:46:34.544Z,74.67
2018-08-03T18:49:02.627Z,73.35
2018-08-03T18:51:30.709Z,51.70
2018-08-03T18:53:58.833Z,80.72
2018-08-03T18:56:26.932Z,76.65
2018-08-03T18:58:55.013Z,68.50
2018-08-03T19:01:23.099Z,58.23
2018-08-03T19:03:51.175Z,49.42
2018-08-03T19:06:19.289Z,47.05
2018-08-03T19:08:47.395Z,42.27
2018-08-03T19:11:15.515Z,55.98
2018-08-03T19:13:43.581Z,56.15
2018-08-03T19:16:11.652Z,71.28
2018-08-03T19:18:40.049Z,74.82
2018-08-03T19:21:08.134Z,61.73
2018-08-03T19:23:36.212Z,42.30
2018-08-03T19:26:04.312Z,47.03
2018-08-03T19:28:32.411Z,42.43
2018-08-03T19:31:00.492Z,37.78
2018-08-03T19:33:28.649Z,53.70
2018-08-03T19:35:56.708Z,33.45
2018-08-03T19:38:24.820Z,33.53
2018-08-03T19:40:52.920Z,38.38
2018-08-03T19:43:21.034Z,45.65
2018-08-03T19:45:49.120Z,40.43
2018-08-03T19:48:17.191Z,35.30
2018-08-03T19:50:45.635Z,39.80
2018-08-03T19:53:13.786Z,28.00
2018-08-03T19:55:42.692Z,35.10
2018-08-03T19:58:10.791Z,52.27
2018-08-03T20:00:38.884Z,57.88
2018-08-03T20:03:07.025Z,32.10
2018-08-03T20:05:35.102Z,45.65
2018-08-03T20:08:03.220Z,37.13
2018-08-03T20:10:31.328Z,39.08
2018-08-03T20:13:00.112Z,38.42
2018-08-03T20:15:28.174Z,42.70
2018-08-03T20:17:56.275Z,45.58
2018-08-03T20:20:24.380Z,64.97
2018-08-03T20:22:52.505Z,44.70
2018-08-03T20:25:20.580Z,52.95
2018-08-03T20:27:48.652Z,43.83
2018-08-03T20:30:16.743Z,32.13
2018-08-03T20:32:44.873Z,36.38
2018-08-03T20:35:12.940Z,31.60
2018-08-03T20:37:41.031Z,37.50
2018-08-03T20:40:09.616Z,25.97
2018-08-03T20:42:37.718Z,24.23
2018-08-03T20:45:06.083Z,25.57
2018-08-03T20:47:34.195Z,25.72
2018-08-03T20:50:02.312Z,27.48
2018-08-03T20:52:30.597Z,25.12
2018-08-03T20:54:58.710Z,28.35
2018-08-03T20:57:26.817Z,36.40
2018-08-03T20:59:54.869Z,31.02
2018-08-03T21:02:23.180Z,32.65
2018-08-03T21:04:51.248Z,27.02
2018-08-03T21:07:19.332Z,31.12
2018-08-03T21:09:47.487Z,21.33
2018-08-03T21:12:15.615Z,22.42
2018-08-03T21:14:43.681Z,28.30
2018-08-03T21:17:11.758Z,31.33
2018-08-03T21:19:39.832Z,35.00
2018-08-03T21:22:07.936Z,23.50
2018-08-03T21:24:36.049Z,31.27
2018-08-03T21:27:04.092Z,21.82
2018-08-03T21:29:32.158Z,21.73
2018-08-03T21:32:00.241Z,22.75
2018-08-03T21:34:28.327Z,28.00
2018-08-03T21:36:56.407Z,26.40
2018-08-03T21:39:24.477Z,33.53
2018-08-03T21:41:52.572Z,30.05
2018-08-03T21:44:20.667Z,39.75
2018-08-03T21:46:48.795Z,27.27
2018-08-03T21:49:16.898Z,30.27
2018-08-03T21:51:44.991Z,33.00
2018-08-03T21:54:13.060Z,39.73
2018-08-03T21:56:41.139Z,40.23
2018-08-03T21:59:09.228Z,32.25
2018-08-03T22:01:37.336Z,29.30
2018-08-03T22:04:05.445Z,34.13
2018-08-03T22:06:33.515Z,31.50
2018-08-03T22:09:01.592Z,35.85
2018-08-03T22:11:29.680Z,25.05
2018-08-03T22:13:57.737Z,34.35
2018-08-03T22:16:25.840Z,28.25
2018-08-03T22:18:53.984Z,24.23
2018-08-03T22:21:22.043Z,25.57
2018-08-03T22:23:50.129Z,32.75
2018-08-03T22:26:18.192Z,28.12
2018-08-03T22:28:46.244Z,35.33
2018-08-03T22:31:14.629Z,27.00
2018-08-03T22:33:42.776Z,29.20
2018-08-03T22:36:10.819Z,35.45
2018-08-03T22:38:38.968Z,25.92
2018-08-03T22:41:07.040Z,25.80
2018-08-03T22:43:35.090Z,33.53
2018-08-03T22:46:03.168Z,32.20
2018-08-03T22:48:31.279Z,35.30
2018-08-03T22:50:59.317Z,20.85
2018-08-03T22:53:27.404Z,27.45
2018-08-03T22:55:55.463Z,28.87
2018-08-03T22:58:23.548Z,21.23
2018-08-03T23:00:51.611Z,29.30
2018-08-03T23:03:19.659Z,26.17
2018-08-03T23:05:47.767Z,23.38
2018-08-03T23:08:16.000Z,36.35
2018-08-03T23:10:43.991Z,29.77
2018-08-03T23:13:12.060Z,29.27
2018-08-03T23:15:40.175Z,20.02
2018-08-03T23:18:08.263Z,17.00
2018-08-03T23:20:36.328Z,12.55
2018-08-03T23:23:04.381Z,16.50
2018-08-03T23:25:32.465Z,20.70
2018-08-03T23:28:00.531Z,30.40
2018-08-03T23:30:28.616Z,19.98
2018-08-03T23:32:56.693Z,19.30
2018-08-03T23:35:24.785Z,26.57
2018-08-03T23:37:52.840Z,22.27
2018-08-03T23:40:20.936Z,22.77
2018-08-03T23:42:49.047Z,20.85
2018-08-03T23:45:17.152Z,18.70
2018-08-03T23:47:45.225Z,17.42
2018-08-03T23:50:16.164Z,19.82
2018-08-03T23:52:44.720Z,15.58
2018-08-03T23:55:12.776Z,19.73
2018-08-03T23:57:40.849Z,24.30
